• Join FlightAware (Why Join?)
  • Login
  • US Flag 
07:35AM EDT


 

Airport Tracker/Info


-or-


 

Live Flight TrackerFlight Track Log ✈ SWA1810 ✈ 02-May-2013 ✈ KMSY - KBWI

Flight Track Log - Related Links

Times and Time Zones

All times are in EDT time to prevent confusion due to time zone crossing. See the SWA1810 flight status page for this flight to view local times or setup timezone preferences in your user account.

Time Position Orientation Groundspeed Altitude Reporting Facility
EDT Latitude Longitude Course Direction KTS MPH feet Rate Location/Type
07:49AM 30.0092 -90.2453 15° North 155 178 800  Level Houston Center
07:50AM 30.0258 -90.2400 15° North 151 174 1,500 1,620 Climbing Houston Center
07:50AM 30.0533 -90.2317 15° North 180 207 2,500 2,100 Climbing Houston Center
07:51AM 30.0858 -90.2206 16° North 218 251 3,900 2,220 Climbing Houston Center
07:52AM 30.1156 -90.2081 20° North 218 251 4,800 2,700 Climbing Houston Center
07:53AM 30.1725 -90.1483 42° Northeast 259 298 8,100 3,240 Climbing Houston Center
07:54AM 30.2358 -90.0872 40° Northeast 288 331 11,500 3,180 Climbing Houston Center
07:55AM 30.3128 -90.0128 40° Northeast 350 403 14,600 3,240 Climbing Houston Center
07:56AM 30.3928 -89.9350 40° Northeast 368 423 18,200 3,240 Climbing Houston Center
07:57AM 30.4753 -89.8533 40° Northeast 378 435 21,300 2,400 Climbing Houston Center
07:58AM 30.5606 -89.7697 40° Northeast 392 451 23,200 2,040 Climbing Houston Center
07:59AM 30.6292 -89.6631 53° Northeast 413 475 25,500 2,340 Climbing Houston Center
08:00AM 30.7006 -89.5197 60° Northeast 424 488 28,000 2,160 Climbing Houston Center
08:01AM 30.7617 -89.3967 60° Northeast 437 503 30,000 1,860 Climbing Houston Center
08:02AM 30.8244 -89.2711 60° Northeast 447 514 31,800 1,440 Climbing Houston Center
08:03AM 30.8728 -89.1369 67° East 449 517 33,000 540 Climbing Houston Center
08:04AM 30.9133 -88.9994 71° East 449 517 33,000 120 Level Houston Center
08:05AM 30.9539 -88.8672 70° East 452 520 33,300 540 Climbing Houston Center
08:06AM 30.9964 -88.7297 70° East 451 519 34,100 780 Climbing Houston Center
08:07AM 31.0406 -88.5861 70° East 450 518 35,000 420 Climbing Houston Center
08:08AM 31.0983 -88.4564 62° Northeast 449 517 35,000  Level Houston Center
08:09AM 31.1650 -88.3347 57° Northeast 447 514 35,000 660 Level Houston Center
08:10AM 31.2339 -88.2081 58° Northeast 455 524 36,400 1,260 Climbing Houston Center
08:11AM 31.3156 -88.0558 58° Northeast 459 528 37,700 1,260 Climbing Houston Center
08:12AM 31.3869 -87.9283 57° Northeast 469 540 39,000 600 Climbing Atlanta Center
08:13AM 31.4492 -87.8092 59° Northeast 450 518 39,000  Level Atlanta Center
08:14AM 31.5156 -87.6853 58° Northeast 450 518 39,000  Level Atlanta Center
08:15AM 31.5794 -87.5636 58° Northeast 445 512 39,000  Level Atlanta Center
08:16AM 31.6456 -87.4417 57° Northeast 445 512 39,000  Level Atlanta Center
08:17AM 31.6983 -87.3436 58° Northeast 440 506 39,000  Level Atlanta Center
08:18AM 31.7622 -87.2092 61° Northeast 435 501 39,000  Level Atlanta Center
08:19AM 31.8258 -87.0844 59° Northeast 435 501 39,000  Level Atlanta Center
08:20AM 31.8917 -86.9619 58° Northeast 435 501 39,000  Level Atlanta Center
08:21AM 31.9550 -86.8392 59° Northeast 440 506 39,000  Level Atlanta Center
08:22AM 32.0289 -86.7092 56° Northeast 440 506 39,000  Level Atlanta Center
08:23AM 32.0897 -86.5833 60° Northeast 440 506 39,000  Level Atlanta Center
08:24AM 32.1550 -86.4628 57° Northeast 440 506 39,000  Level Atlanta Center
08:25AM 32.2136 -86.3439 60° Northeast 430 495 39,000  Level Atlanta Center
08:26AM 32.2803 -86.2353 54° Northeast 430 495 39,000  Level Atlanta Center
08:27AM 32.3553 -86.1214 52° Northeast 438 504 39,000  Level Atlanta Center
08:28AM 32.4303 -86.0075 52° Northeast 433 498 39,000  Level Atlanta Center
08:29AM 32.5197 -85.8789 50° Northeast 446 513 39,000  Level Atlanta Center
08:30AM 32.5967 -85.7647 51° Northeast 451 519 39,000  Level Atlanta Center
08:31AM 32.6711 -85.6528 52° Northeast 445 512 39,000  Level Atlanta Center
08:32AM 32.7478 -85.5381 52° Northeast 445 512 39,000  Level Atlanta Center
08:33AM 32.8242 -85.4231 52° Northeast 445 512 39,000  Level Atlanta Center
08:34AM 32.8986 -85.3081 52° Northeast 445 512 39,000  Level Atlanta Center
08:35AM 32.9747 -85.1928 52° Northeast 445 512 39,000  Level Atlanta Center
08:36AM 33.0489 -85.0772 53° Northeast 445 512 39,000  Level Atlanta Center
08:37AM 33.1250 -84.9639 51° Northeast 440 506 39,000  Level Atlanta Center
08:38AM 33.1989 -84.8506 52° Northeast 440 506 39,000  Level Atlanta Center
08:39AM 33.2706 -84.7419 52° Northeast 435 501 39,000  Level Atlanta Center
08:40AM 33.3378 -84.6381 52° Northeast 435 501 39,000  Level Atlanta Center
08:41AM 33.4175 -84.5217 51° Northeast 442 509 39,000  Level Atlanta Center
08:42AM 33.4847 -84.4025 56° Northeast 442 509 39,000  Level Atlanta Center
08:43AM 33.5664 -84.2856 50° Northeast 442 509 39,000  Level Atlanta Center
08:44AM 33.6439 -84.1686 51° Northeast 442 509 39,000  Level Atlanta Center
08:45AM 33.7169 -84.0489 54° Northeast 442 509 39,000  Level Atlanta Center
08:46AM 33.7922 -83.9339 52° Northeast 442 509 39,000  Level Atlanta Center
08:47AM 33.8650 -83.8161 53° Northeast 442 509 39,000  Level Atlanta Center
08:48AM 33.9442 -83.6958 52° Northeast 442 509 39,000  Level Atlanta Center
08:49AM 34.0147 -83.5803 54° Northeast 442 509 39,000  Level Atlanta Center
08:50AM 34.0933 -83.4594 52° Northeast 442 509 39,000  Level Atlanta Center
08:51AM 34.1681 -83.3408 53° Northeast 442 509 39,000  Level Atlanta Center
08:52AM 34.2422 -83.2222 53° Northeast 442 509 39,000  Level Atlanta Center
08:53AM 34.3167 -83.1031 53° Northeast 442 509 39,000  Level Atlanta Center
08:54AM 34.3908 -82.9817 53° Northeast 442 509 39,000  Level Atlanta Center
08:55AM 34.4647 -82.8622 53° Northeast 442 509 39,000  Level Atlanta Center
08:56AM 34.5389 -82.7428 53° Northeast 442 509 39,000  Level Atlanta Center
08:57AM 34.6125 -82.6203 54° Northeast 442 509 39,000  Level Atlanta Center
08:58AM 34.6883 -82.5003 52° Northeast 442 509 39,000  Level Atlanta Center
08:59AM 34.7597 -82.3778 55° Northeast 442 509 39,000  Level Atlanta Center
09:00AM 34.8333 -82.2597 53° Northeast 442 509 39,000  Level Atlanta Center
09:01AM 34.9064 -82.1342 55° Northeast 442 509 39,000  Level Atlanta Center
09:02AM 34.9881 -82.0106 51° Northeast 437 503 39,000  Level Atlanta Center
09:03AM 35.0567 -81.8844 56° Northeast 442 509 39,000  Level Atlanta Center
09:04AM 35.1211 -81.7583 58° Northeast 442 509 39,000  Level Atlanta Center
09:05AM 35.1917 -81.6294 56° Northeast 449 517 39,000  Level Atlanta Center
09:06AM 35.2581 -81.5028 57° Northeast 444 511 39,000  Level Atlanta Center
09:07AM 35.3242 -81.3736 58° Northeast 444 511 39,000  Level Atlanta Center
09:08AM 35.3903 -81.2442 58° Northeast 444 511 39,000  Level Atlanta Center
09:09AM 35.4600 -81.1092 58° Northeast 455 524 39,000  Level Atlanta Center
09:10AM 35.5297 -80.9764 57° Northeast 460 529 39,000  Level Atlanta Center
09:11AM 35.5994 -80.8436 57° Northeast 460 529 39,000  Level Atlanta Center
09:12AM 35.6692 -80.7131 57° Northeast 455 524 39,000  Level Atlanta Center
09:13AM 35.7364 -80.5825 58° Northeast 455 524 39,000  Level Atlanta Center
09:14AM 35.8036 -80.4517 58° Northeast 455 524 39,000  Level Atlanta Center
09:16AM 35.9203 -80.2217 58° Northeast 469 540 39,000  Level Washington Center
09:17AM 35.9881 -80.0869 58° Northeast 462 532 39,000  Level Washington Center
09:18AM 36.0511 -79.9672 57° Northeast 441 507 39,000  Level Washington Center
09:19AM 36.1264 -79.8428 53° Northeast 441 507 39,000  Level Washington Center
09:20AM 36.1869 -79.7278 57° Northeast 446 513 39,000  Level Washington Center
09:21AM 36.2644 -79.5900 55° Northeast 446 513 39,000  Level Washington Center
09:22AM 36.3244 -79.4797 56° Northeast 438 504 39,000  Level Washington Center
09:23AM 36.3953 -79.3542 55° Northeast 438 504 39,000 -1,080 Level Washington Center
09:24AM 36.4706 -79.2183 55° Northeast 432 497 36,900 -2,340 Descending Washington Center
09:25AM 36.5428 -79.1003 53° Northeast 432 497 34,300 -2,280 Descending Washington Center
09:26AM 36.6000 -78.9994 55° Northeast 432 497 32,500 -2,160 Descending Washington Center
09:27AM 36.6794 -78.8475 57° Northeast 432 497 30,100 -1,740 Descending Washington Center
09:28AM 36.7364 -78.7408 56° Northeast 432 497 29,000 -600 Descending Washington Center
09:29AM 36.8022 -78.6217 55° Northeast 422 486 29,000 -360 Level Washington Center
09:30AM 36.8678 -78.5022 56° Northeast 417 480 28,300 -900 Descending Washington Center
09:31AM 36.9394 -78.3750 55° Northeast 404 465 27,200 -1,080 Descending Washington Center
09:32AM 37.0047 -78.2550 56° Northeast 410 472 26,200 -1,020 Descending Washington Center
09:33AM 37.0781 -78.1508 49° Northeast 404 465 25,200 -960 Descending Washington Center
09:34AM 37.1733 -78.0786 31° Northeast 391 450 24,400 -900 Descending Washington Center
09:35AM 37.2625 -78.0083 32° Northeast 385 443 23,400 -720 Descending Washington Center
09:36AM 37.3556 -77.9381 31° Northeast 385 443 23,000 -240 Descending Washington Center
09:37AM 37.4467 -77.8678 31° Northeast 385 443 23,000 -360 Level Washington Center
09:38AM 37.5378 -77.7997 31° Northeast 385 443 22,400 -840 Descending Washington Center
09:39AM 37.6286 -77.7261 33° Northeast 380 437 21,400 -1,020 Descending Washington Center
09:40AM 37.7197 -77.6581 31° Northeast 380 437 20,400 -1,020 Descending Washington Center
09:41AM 37.8106 -77.5894 31° Northeast 380 437 19,400 -720 Descending Washington Center
09:42AM 37.8950 -77.5206 33° Northeast 375 432 19,000 -240 Descending Washington Center
09:43AM 37.9794 -77.4542 32° Northeast 363 418 19,000  Level Washington Center
09:44AM 38.0594 -77.3956 30° Northeast 353 406 19,000  Level Washington Center
09:45AM 38.1356 -77.3342 32° Northeast 346 398 19,000 -180 Level Washington Center
09:46AM 38.2156 -77.2725 31° Northeast 346 398 18,700 -900 Descending Washington Center
09:47AM 38.2917 -77.2108 32° Northeast 340 391 17,300 -1,860 Descending Washington Center
09:48AM 38.3675 -77.1489 33° Northeast 327 376 15,100 -1,620 Descending Washington Center
09:49AM 38.4331 -77.0758 41° Northeast 316 364 14,100 -1,440 Descending Washington Center
09:50AM 38.4986 -77.0003 42° Northeast 310 357 12,300 -1,080 Descending Washington Center
09:51AM 38.5578 -76.9244 45° Northeast 304 350 12,000 -840 Descending Washington Center
09:52AM 38.6169 -76.8539 43° Northeast 299 344 10,700 -1,200 Descending Washington Center
09:53AM 38.6739 -76.7856 43° Northeast 287 330 9,700 -1,020 Descending Washington Center
09:54AM 38.7500 -76.6500 54° Northeast 250 288 7,900 -1,200 Descending Potomac TRACON
09:55AM 38.7833 -76.5667 63° Northeast 249 287 6,500 -1,200 Descending Potomac TRACON
09:56AM 38.8500 -76.5333 21° North 267 307 5,500 -1,020 Descending Potomac TRACON
09:57AM 38.9167 -76.5667 339° North 264 304 4,500 -780 Descending Potomac TRACON
09:58AM 38.9833 -76.6167 330° Northwest 265 305 4,000 -540 Descending Potomac TRACON
09:59AM 39.0167 -76.7000 297° West 270 311 3,500 -540 Descending Potomac TRACON
10:00AM 39.0500 -76.7833 297° West 258 297 3,000 -540 Descending Potomac TRACON
10:01AM 39.1000 -76.8333 322° Northwest 223 257 2,500 -540 Descending Potomac TRACON
10:02AM 39.1500 -76.8333 360° North 205 236 2,000 -420 Descending Potomac TRACON
10:03AM 39.1833 -76.7833 49° Northeast 138 159 1,700 -420 Descending Potomac TRACON
10:04AM 39.1833 -76.7500 90° East 128 147 1,200 -720 Descending Potomac TRACON
10:05AM 39.1833 -76.7000 90° East 132 152 400 -840 Descending Potomac TRACON
10:07AM 39.1754 -76.6683 108° East  Level Estimated
10:14AM 39.1754 -76.6683 293° West  Level Estimated
10:15AM 39.1754 -76.6683 293° West  Level Estimated